Time;durP1;ratioP1;P1;durP2;ratioP2;P2;SDS_P1;SDS_P2;PMS_P1;PMS_P2;Temp;Humidity;BMP_temperature;BMP_pressure;BME280_temperature;BME280_humidity;BME280_pressure;Samples;Min_cycle;Max_cycle;Signal;HPM_P1;HPM_P2
2022/12/19 00:01:17;;;;;;;11.10;8.00;;;-0.20;91.60;;;;;;5030222;28;20246;-49
2022/12/19 00:03:47;;;;;;;13.75;9.82;;;-0.20;91.30;;;;;;5025458;28;20201;-51
2022/12/19 00:06:17;;;;;;;16.30;9.32;;;-0.20;91.50;;;;;;5026347;28;20668;-51
2022/12/19 00:08:48;;;;;;;10.40;7.88;;;-0.20;91.50;;;;;;5028245;28;20197;-54
2022/12/19 00:11:18;;;;;;;13.30;8.40;;;-0.20;91.50;;;;;;5019721;28;20311;-56
2022/12/19 00:13:49;;;;;;;14.32;8.75;;;-0.20;91.40;;;;;;5020396;28;20192;-52
2022/12/19 00:16:20;;;;;;;16.33;8.73;;;-0.20;91.50;;;;;;5026123;28;20236;-50
2022/12/19 00:18:50;;;;;;;12.98;8.13;;;-0.20;91.60;;;;;;5025105;28;20216;-51
2022/12/19 00:21:24;;;;;;;14.88;8.10;;;-0.20;92.00;;;;;;5024401;28;20217;-52
2022/12/19 00:23:54;;;;;;;13.32;8.50;;;-0.20;91.90;;;;;;5013938;28;20225;-52
2022/12/19 00:26:26;;;;;;;15.07;9.80;;;-0.20;91.80;;;;;;5024662;28;20256;-52
2022/12/19 00:28:58;;;;;;;11.18;8.30;;;-0.20;91.70;;;;;;5021982;28;20244;-51
2022/12/19 00:31:29;;;;;;;14.13;8.80;;;-0.20;92.30;;;;;;5008229;28;20589;-52
2022/12/19 00:33:58;;;;;;;16.15;8.88;;;-0.20;92.30;;;;;;5030480;28;20575;-52
2022/12/19 00:36:28;;;;;;;14.18;9.55;;;-0.20;92.70;;;;;;5026102;28;20217;-52
2022/12/19 00:38:58;;;;;;;14.85;8.90;;;-0.20;92.30;;;;;;5030477;28;20260;-53
2022/12/19 00:41:28;;;;;;;14.65;8.65;;;-0.10;92.30;;;;;;5027001;28;20228;-50
2022/12/19 00:44:00;;;;;;;9.40;7.03;;;-0.10;92.40;;;;;;5025354;28;20563;-51
2022/12/19 00:46:31;;;;;;;11.73;8.25;;;-0.10;92.20;;;;;;5021688;28;20224;-50
2022/12/19 00:49:00;;;;;;;16.02;9.32;;;-0.10;92.00;;;;;;5029678;28;20274;-52
2022/12/19 00:51:32;;;;;;;18.70;9.00;;;-0.10;92.30;;;;;;5030428;28;20854;-50
2022/12/19 00:54:01;;;;;;;12.50;9.07;;;-0.10;92.10;;;;;;5010407;28;20511;-53
2022/12/19 00:56:35;;;;;;;12.77;8.45;;;-0.10;92.50;;;;;;5022704;28;20220;-57
2022/12/19 00:59:09;;;;;;;19.17;9.65;;;-0.10;92.40;;;;;;5030878;28;20227;-52
2022/12/19 01:01:40;;;;;;;17.23;9.18;;;-0.10;92.30;;;;;;5023994;28;20303;-52
2022/12/19 01:04:13;;;;;;;13.35;9.63;;;-0.10;92.50;;;;;;5026597;28;20193;-53
2022/12/19 01:07:07;;;;;;;15.55;8.50;;;-0.10;92.90;;;;;;5027223;28;20217;-49
2022/12/19 01:09:37;;;;;;;14.05;10.07;;;-0.10;92.60;;;;;;5025770;28;20197;-53
2022/12/19 01:14:56;;;;;;;11.00;7.15;;;-0.10;92.70;;;;;;5028795;28;20227;-52
2022/12/19 01:17:34;;;;;;;16.85;9.20;;;-0.10;92.40;;;;;;5024897;28;20696;-53
2022/12/19 01:20:13;;;;;;;13.63;8.25;;;-0.10;92.40;;;;;;5029646;28;20284;-54
2022/12/19 01:22:42;;;;;;;12.20;7.90;;;-0.10;92.90;;;;;;5031500;28;20202;-54
2022/12/19 01:25:13;;;;;;;13.23;9.27;;;-0.10;91.80;;;;;;5034909;28;20580;-52
2022/12/19 01:27:42;;;;;;;13.60;8.27;;;-0.10;92.40;;;;;;5031235;28;20226;-54
2022/12/19 01:30:14;;;;;;;13.48;8.20;;;-0.10;92.30;;;;;;5034947;28;20243;-52
2022/12/19 01:32:44;;;;;;;15.98;9.38;;;-0.10;92.10;;;;;;5026338;28;20252;-52
2022/12/19 01:35:12;;;;;;;12.30;7.53;;;-0.10;92.40;;;;;;5028222;28;20213;-55
2022/12/19 01:37:50;;;;;;;14.35;8.88;;;-0.10;91.90;;;;;;5040441;28;20690;-52
2022/12/19 01:40:19;;;;;;;17.77;9.77;;;-0.10;91.90;;;;;;5030780;28;20613;-51
2022/12/19 01:42:48;;;;;;;12.75;7.68;;;-0.10;91.70;;;;;;5039902;28;20302;-50
2022/12/19 01:45:30;;;;;;;11.05;6.85;;;-0.10;91.30;;;;;;5024941;28;20303;-50
2022/12/19 01:48:15;;;;;;;11.02;7.68;;;-0.10;91.20;;;;;;5026473;28;20431;-50
2022/12/19 01:50:56;;;;;;;11.38;8.25;;;-0.10;91.20;;;;;;5033265;28;20232;-49
2022/12/19 01:53:34;;;;;;;10.50;7.38;;;-0.10;91.00;;;;;;5036194;28;20683;-51
2022/12/19 01:56:18;;;;;;;12.15;7.68;;;-0.10;90.70;;;;;;5027526;28;20237;-50
2022/12/19 01:58:49;;;;;;;13.57;7.95;;;-0.10;91.10;;;;;;5030141;28;20215;-51
2022/12/19 02:01:25;;;;;;;13.20;8.35;;;-0.10;91.20;;;;;;5028077;28;20221;-51
2022/12/19 02:03:56;;;;;;;13.25;9.48;;;-0.10;91.20;;;;;;5029668;28;20214;-55
2022/12/19 02:06:26;;;;;;;16.58;9.73;;;-0.10;92.20;;;;;;5025717;28;20231;-52
2022/12/19 02:08:56;;;;;;;11.32;7.57;;;0.00;92.00;;;;;;5027916;28;20278;-53
2022/12/19 02:11:25;;;;;;;11.55;7.93;;;0.00;92.20;;;;;;5026214;28;20305;-52
2022/12/19 02:13:53;;;;;;;15.25;8.88;;;0.00;92.10;;;;;;5027043;28;20197;-53
2022/12/19 02:16:34;;;;;;;9.70;8.00;;;0.00;91.80;;;;;;5024204;28;20209;-52
2022/12/19 02:19:18;;;;;;;16.63;8.90;;;0.00;91.60;;;;;;5016585;28;20206;-54
2022/12/19 02:21:55;;;;;;;15.00;6.25;;;0.00;91.70;;;;;;5034740;28;20225;-51
2022/12/19 02:25:01;;;;;;;12.43;6.30;;;0.00;91.50;;;;;;5033434;28;20227;-55
2022/12/19 02:28:03;;;;;;;10.93;7.35;;;0.00;91.20;;;;;;4994333;28;20684;-53
2022/12/19 02:30:53;;;;;;;15.23;8.02;;;0.00;91.60;;;;;;5009159;28;20212;-51
2022/12/19 02:33:32;;;;;;;12.30;8.07;;;0.00;91.90;;;;;;5007060;28;20788;-51
2022/12/19 02:36:07;;;;;;;12.38;7.75;;;0.00;91.60;;;;;;5020272;28;20252;-53
2022/12/19 02:38:45;;;;;;;9.80;6.40;;;0.00;91.80;;;;;;5007792;28;20261;-52
2022/12/19 02:41:18;;;;;;;12.68;7.57;;;0.00;91.70;;;;;;5043236;23;20285;-74
2022/12/19 02:43:51;;;;;;;13.25;7.20;;;0.00;91.50;;;;;;5034173;28;21074;-74
2022/12/19 02:46:29;;;;;;;12.57;7.70;;;0.00;91.40;;;;;;5019217;28;20226;-74
2022/12/19 02:48:59;;;;;;;15.02;8.50;;;0.00;91.90;;;;;;5022216;28;20217;-73
2022/12/19 02:51:27;;;;;;;12.38;8.00;;;0.00;92.30;;;;;;5018814;28;20241;-77
2022/12/19 02:53:57;;;;;;;14.18;8.43;;;0.00;92.10;;;;;;5010782;28;20197;-74
2022/12/19 02:56:42;;;;;;;14.63;8.48;;;0.00;92.40;;;;;;5021287;28;20227;-75
2022/12/19 02:59:49;;;;;;;14.45;9.18;;;0.00;91.90;;;;;;5029321;28;20688;-75
2022/12/19 03:02:28;;;;;;;11.27;7.00;;;0.00;91.90;;;;;;4938278;29;20231;-74
2022/12/19 03:05:05;;;;;;;10.75;6.95;;;0.00;91.20;;;;;;5021297;28;20200;-75
2022/12/19 03:07:40;;;;;;;7.72;6.05;;;0.00;91.40;;;;;;5026060;28;20230;-75
2022/12/19 03:10:18;;;;;;;16.10;6.57;;;0.00;91.10;;;;;;5033820;28;20209;-74
2022/12/19 03:12:53;;;;;;;8.18;6.03;;;0.00;91.00;;;;;;5029371;28;20258;-73
2022/12/19 03:15:24;;;;;;;9.50;7.43;;;0.00;90.50;;;;;;5024626;28;20234;-73
2022/12/19 03:17:59;;;;;;;9.52;6.47;;;0.00;90.50;;;;;;5037013;28;20271;-74
2022/12/19 03:20:46;;;;;;;9.63;6.20;;;0.00;90.50;;;;;;5059820;28;20212;-73
2022/12/19 03:23:15;;;;;;;8.50;6.22;;;0.00;90.70;;;;;;5032652;28;20201;-73
2022/12/19 03:25:49;;;;;;;12.77;6.00;;;0.00;90.40;;;;;;5031218;28;20272;-74
2022/12/19 03:28:26;;;;;;;10.43;6.30;;;0.00;90.60;;;;;;5037487;28;20222;-76
2022/12/19 03:30:58;;;;;;;7.47;5.18;;;0.00;90.50;;;;;;5050633;28;20200;-75
2022/12/19 03:33:31;;;;;;;10.88;5.97;;;0.00;90.40;;;;;;5057173;28;20193;-75
2022/12/19 03:36:04;;;;;;;8.98;5.85;;;0.00;90.20;;;;;;5043095;28;20298;-75
2022/12/19 03:38:35;;;;;;;8.77;5.32;;;0.00;90.40;;;;;;5035669;28;20224;-74
2022/12/19 03:41:06;;;;;;;8.73;5.03;;;0.00;90.50;;;;;;5044593;28;20221;-73
2022/12/19 03:43:34;;;;;;;9.23;5.32;;;0.10;90.50;;;;;;5046742;28;20251;-75
2022/12/19 03:46:12;;;;;;;9.52;5.80;;;0.10;90.80;;;;;;5048593;28;20196;-75
2022/12/19 03:48:47;;;;;;;11.30;6.18;;;0.10;90.70;;;;;;5037366;28;20223;-74
2022/12/19 03:51:24;;;;;;;7.28;5.20;;;0.10;90.80;;;;;;5041570;28;20219;-76
2022/12/19 03:54:00;;;;;;;7.95;5.07;;;0.10;90.90;;;;;;5040802;28;20196;-75
2022/12/19 03:56:38;;;;;;;8.43;5.30;;;0.10;90.70;;;;;;5047214;28;20208;-73
2022/12/19 03:59:11;;;;;;;7.22;4.25;;;0.10;91.00;;;;;;5029291;28;20220;-74
2022/12/19 04:01:41;;;;;;;7.47;4.60;;;0.10;91.30;;;;;;5045820;28;20220;-75
2022/12/19 04:04:12;;;;;;;10.15;5.55;;;0.10;91.10;;;;;;5054986;28;20197;-73
2022/12/19 04:06:43;;;;;;;8.80;5.55;;;0.10;91.20;;;;;;5042139;28;20231;-76
2022/12/19 04:09:12;;;;;;;7.07;5.68;;;0.10;91.20;;;;;;5037262;28;20263;-74
2022/12/19 04:11:52;;;;;;;7.32;4.22;;;0.10;91.10;;;;;;5046039;28;20224;-75
2022/12/19 04:14:26;;;;;;;10.27;6.28;;;0.10;91.00;;;;;;5040941;28;20668;-73
2022/12/19 04:17:01;;;;;;;9.63;5.53;;;0.10;91.00;;;;;;5049811;28;20702;-74
2022/12/19 04:19:37;;;;;;;11.50;5.00;;;0.10;91.00;;;;;;5053588;28;20224;-75
2022/12/19 04:22:17;;;;;;;8.00;5.35;;;0.10;91.40;;;;;;5035380;28;20865;-75
2022/12/19 04:24:47;;;;;;;11.45;6.15;;;0.10;91.10;;;;;;5046958;28;20265;-74
2022/12/19 04:27:17;;;;;;;8.27;5.03;;;0.10;91.00;;;;;;5040577;28;20336;-74
2022/12/19 04:29:46;;;;;;;6.32;5.25;;;0.10;91.00;;;;;;5037459;28;20244;-74
2022/12/19 04:32:15;;;;;;;7.97;4.60;;;0.10;91.00;;;;;;5035366;28;20248;-75
2022/12/19 04:34:45;;;;;;;8.32;4.93;;;0.10;91.00;;;;;;5044126;28;20247;-74
2022/12/19 04:37:14;;;;;;;5.07;4.32;;;0.10;91.10;;;;;;5043353;28;20316;-73
2022/12/19 04:39:42;;;;;;;6.35;3.85;;;0.10;91.30;;;;;;5050341;28;20279;-73
2022/12/19 04:42:11;;;;;;;8.30;4.15;;;0.10;91.30;;;;;;5033070;28;20304;-76
2022/12/19 04:44:39;;;;;;;6.50;4.28;;;0.10;91.30;;;;;;5046763;28;20196;-74
2022/12/19 04:47:08;;;;;;;5.13;3.45;;;0.10;91.30;;;;;;5042880;28;20220;-74
2022/12/19 04:49:37;;;;;;;6.70;4.53;;;0.10;91.30;;;;;;5046394;28;20249;-74
2022/12/19 04:52:07;;;;;;;8.55;5.03;;;0.10;91.40;;;;;;5024280;28;20472;-74
2022/12/19 04:54:35;;;;;;;6.45;4.10;;;0.10;91.30;;;;;;5035901;28;20582;-74
2022/12/19 04:57:04;;;;;;;7.65;4.30;;;0.20;91.30;;;;;;5041260;28;20299;-73
2022/12/19 04:59:32;;;;;;;6.32;3.55;;;0.20;91.30;;;;;;5042614;28;20749;-74
2022/12/19 05:02:01;;;;;;;7.30;6.20;;;0.20;91.30;;;;;;5043933;28;20248;-76
2022/12/19 05:04:29;;;;;;;7.57;3.58;;;0.20;91.30;;;;;;5039343;28;20192;-74
2022/12/19 05:07:00;;;;;;;5.53;3.50;;;0.20;91.30;;;;;;5038106;28;20632;-73
2022/12/19 05:09:30;;;;;;;5.75;4.45;;;0.20;91.60;;;;;;5034220;28;20288;-74
2022/12/19 05:11:59;;;;;;;7.05;4.55;;;0.20;91.50;;;;;;5043612;28;20217;-74
2022/12/19 05:14:27;;;;;;;6.00;4.90;;;0.20;91.50;;;;;;5043627;28;20238;-73
2022/12/19 05:16:56;;;;;;;6.35;4.20;;;0.20;91.50;;;;;;5035130;28;20264;-75
2022/12/19 05:19:29;;;;;;;6.20;4.63;;;0.20;91.40;;;;;;5040941;28;20231;-74
2022/12/19 05:21:57;;;;;;;7.28;4.20;;;0.20;91.40;;;;;;5034462;28;20212;-75
2022/12/19 05:24:25;;;;;;;6.13;4.00;;;0.20;91.40;;;;;;5031895;28;20185;-74
2022/12/19 05:26:55;;;;;;;6.15;4.53;;;0.20;91.90;;;;;;5041946;28;20716;-75
2022/12/19 05:29:26;;;;;;;5.25;3.78;;;0.20;91.50;;;;;;5042682;28;20300;-73
2022/12/19 05:31:55;;;;;;;4.60;3.47;;;0.20;91.50;;;;;;5030846;28;20275;-74
2022/12/19 05:34:24;;;;;;;4.65;3.13;;;0.20;91.50;;;;;;5032507;28;20202;-74
2022/12/19 05:36:53;;;;;;;4.75;3.47;;;0.20;91.50;;;;;;5039319;28;20635;-73
2022/12/19 05:39:21;;;;;;;4.65;3.55;;;0.30;91.40;;;;;;5040596;28;20217;-75
2022/12/19 05:41:51;;;;;;;4.45;3.55;;;0.30;91.50;;;;;;5049180;28;20262;-75
2022/12/19 05:44:22;;;;;;;5.55;3.63;;;0.30;91.50;;;;;;5053028;28;20608;-75
2022/12/19 05:46:50;;;;;;;5.18;3.60;;;0.30;91.50;;;;;;5018709;28;20247;-75
2022/12/19 05:49:19;;;;;;;5.32;3.65;;;0.30;91.30;;;;;;5060373;28;20213;-74
2022/12/19 05:51:47;;;;;;;5.18;3.05;;;0.30;91.40;;;;;;5042794;28;20275;-74
2022/12/19 05:54:15;;;;;;;4.90;3.53;;;0.30;91.40;;;;;;5043136;28;20286;-74
2022/12/19 05:56:44;;;;;;;4.25;3.42;;;0.30;91.50;;;;;;5060112;28;20229;-76
2022/12/19 05:59:13;;;;;;;5.95;4.03;;;0.30;91.40;;;;;;5042077;28;20715;-75
2022/12/19 06:01:43;;;;;;;5.75;3.70;;;0.30;91.40;;;;;;5044173;28;20232;-74
2022/12/19 06:04:11;;;;;;;5.78;3.65;;;0.30;91.40;;;;;;5054622;28;20196;-74
2022/12/19 06:06:40;;;;;;;5.85;3.40;;;0.30;91.40;;;;;;5043987;28;20267;-77
2022/12/19 06:09:10;;;;;;;4.78;3.33;;;0.30;91.40;;;;;;5040310;28;20309;-75
2022/12/19 06:11:38;;;;;;;5.72;3.40;;;0.30;91.40;;;;;;5044951;28;20743;-74
2022/12/19 06:14:07;;;;;;;3.50;3.10;;;0.30;91.40;;;;;;5043237;28;20201;-74
2022/12/19 06:16:35;;;;;;;5.57;4.03;;;0.30;91.50;;;;;;5063571;28;20247;-74
2022/12/19 06:19:05;;;;;;;4.93;3.70;;;0.40;91.50;;;;;;5054609;28;20267;-75
2022/12/19 06:21:34;;;;;;;4.82;3.30;;;0.40;91.60;;;;;;5040521;28;20225;-74
2022/12/19 06:24:02;;;;;;;4.22;3.30;;;0.30;91.50;;;;;;5037076;28;20201;-73
2022/12/19 06:26:31;;;;;;;6.32;3.20;;;0.40;91.60;;;;;;5044008;28;20278;-74
2022/12/19 06:29:02;;;;;;;4.80;2.92;;;0.40;91.60;;;;;;5042432;28;20242;-73
2022/12/19 06:31:31;;;;;;;4.28;2.90;;;0.40;91.50;;;;;;5043150;28;20330;-74
2022/12/19 06:33:59;;;;;;;4.40;2.97;;;0.40;91.60;;;;;;5042124;28;20683;-74
2022/12/19 06:36:30;;;;;;;4.93;3.67;;;0.40;91.60;;;;;;5063328;28;20232;-74
2022/12/19 06:38:59;;;;;;;4.45;3.20;;;0.40;91.60;;;;;;5040085;28;20396;-73
2022/12/19 06:44:16;;;;;;;5.03;3.40;;;0.40;91.70;;;;;;5041466;28;20639;-74
2022/12/19 06:46:45;;;;;;;4.13;2.95;;;0.40;91.70;;;;;;5061513;28;20260;-73
2022/12/19 06:49:13;;;;;;;5.30;3.50;;;0.40;91.70;;;;;;5044642;28;20278;-75
2022/12/19 06:51:43;;;;;;;4.03;3.17;;;0.50;91.80;;;;;;5038450;28;20724;-74
2022/12/19 06:54:12;;;;;;;6.47;3.63;;;0.40;91.70;;;;;;5032907;28;20641;-74
2022/12/19 06:56:42;;;;;;;4.38;3.38;;;0.50;91.80;;;;;;5040500;28;20220;-74
2022/12/19 06:59:13;;;;;;;5.07;3.60;;;0.50;91.70;;;;;;5035912;28;20222;-74
2022/12/19 07:01:55;;;;;;;4.35;3.58;;;0.50;91.70;;;;;;5043474;28;20329;-74
2022/12/19 07:04:30;;;;;;;4.93;3.75;;;0.50;91.60;;;;;;5037127;28;20193;-74
2022/12/19 07:07:00;;;;;;;5.22;3.35;;;0.50;91.70;;;;;;5058785;28;20785;-74
2022/12/19 07:09:31;;;;;;;4.10;2.88;;;0.50;91.70;;;;;;5027383;28;20697;-73
2022/12/19 07:12:00;;;;;;;4.32;3.45;;;0.50;91.70;;;;;;5036500;28;20217;-75
2022/12/19 07:14:31;;;;;;;3.50;3.17;;;0.50;91.70;;;;;;5043254;28;20410;-74
2022/12/19 07:17:02;;;;;;;4.68;2.90;;;0.50;91.70;;;;;;5042329;28;20518;-75
2022/12/19 07:19:32;;;;;;;4.72;2.92;;;0.50;91.70;;;;;;5043791;28;20251;-74
2022/12/19 07:22:03;;;;;;;4.25;2.72;;;0.50;91.70;;;;;;5037398;28;20760;-74
2022/12/19 07:24:32;;;;;;;7.05;3.92;;;0.50;91.70;;;;;;5035289;28;20205;-73
2022/12/19 07:27:01;;;;;;;4.25;3.15;;;0.50;91.70;;;;;;5044536;28;20208;-73
2022/12/19 07:29:29;;;;;;;4.40;3.97;;;0.50;91.80;;;;;;5062876;28;20750;-74
2022/12/19 07:31:58;;;;;;;5.55;2.95;;;0.60;91.90;;;;;;5041406;28;20326;-76
2022/12/19 07:34:26;;;;;;;6.25;3.30;;;0.60;91.80;;;;;;5051180;28;20192;-74
2022/12/19 07:36:55;;;;;;;4.88;3.05;;;0.60;91.80;;;;;;5040675;28;20326;-76
2022/12/19 07:39:25;;;;;;;3.85;3.30;;;0.60;91.90;;;;;;5060536;28;20221;-73
2022/12/19 07:41:54;;;;;;;4.10;3.60;;;0.50;91.90;;;;;;5035206;28;20239;-74
2022/12/19 07:44:33;;;;;;;5.13;3.83;;;0.60;92.40;;;;;;5061636;28;20331;-75
2022/12/19 07:47:01;;;;;;;4.18;3.30;;;0.60;92.00;;;;;;5043805;28;20358;-73
2022/12/19 07:49:29;;;;;;;5.28;3.25;;;0.60;91.90;;;;;;5062049;28;20221;-73
2022/12/19 07:51:58;;;;;;;4.53;2.97;;;0.60;91.90;;;;;;5040825;28;20236;-76
2022/12/19 07:54:28;;;;;;;4.13;2.92;;;0.60;92.00;;;;;;5060781;28;20205;-74
2022/12/19 07:56:56;;;;;;;5.22;3.65;;;0.60;92.00;;;;;;5027075;28;20270;-74
2022/12/19 07:59:24;;;;;;;4.57;3.05;;;0.60;92.00;;;;;;5063579;28;20430;-75
2022/12/19 08:02:00;;;;;;;4.65;3.25;;;0.60;92.00;;;;;;5045684;28;20298;-74
2022/12/19 08:04:29;;;;;;;5.50;3.40;;;0.60;91.90;;;;;;5027148;28;20200;-74
2022/12/19 08:06:57;;;;;;;5.35;3.78;;;0.60;92.00;;;;;;5033215;28;20213;-74
2022/12/19 08:09:27;;;;;;;3.67;3.33;;;0.60;91.90;;;;;;5035458;28;20308;-74
2022/12/19 08:11:55;;;;;;;6.32;3.70;;;0.60;91.90;;;;;;5057304;28;20213;-73
2022/12/19 08:14:24;;;;;;;6.30;4.57;;;0.60;91.90;;;;;;5033028;28;20193;-74
2022/12/19 08:16:53;;;;;;;5.10;3.15;;;0.60;91.90;;;;;;5035610;28;20232;-74
2022/12/19 08:19:41;;;;;;;6.75;3.33;;;0.70;91.90;;;;;;5038980;28;20323;-73
2022/12/19 08:22:10;;;;;;;2.85;2.63;;;0.70;91.90;;;;;;5035949;28;20216;-73
2022/12/19 08:24:40;;;;;;;3.90;2.95;;;0.60;91.90;;;;;;5040218;28;20202;-74
2022/12/19 08:27:08;;;;;;;4.57;3.22;;;0.70;92.00;;;;;;5047476;28;20350;-73
2022/12/19 08:29:37;;;;;;;4.93;2.90;;;0.70;91.90;;;;;;5044325;28;20783;-74
2022/12/19 08:32:05;;;;;;;4.25;2.60;;;0.60;91.90;;;;;;5037334;28;20248;-74
2022/12/19 08:34:34;;;;;;;5.63;3.13;;;0.70;91.90;;;;;;5029140;28;20662;-73
2022/12/19 08:37:04;;;;;;;4.55;3.08;;;0.70;91.90;;;;;;5045136;28;20311;-73
2022/12/19 08:39:32;;;;;;;4.10;3.00;;;0.70;91.90;;;;;;5032949;28;20705;-73
2022/12/19 08:42:03;;;;;;;4.15;2.75;;;0.70;91.90;;;;;;5043814;28;20217;-74
2022/12/19 08:44:31;;;;;;;5.00;3.75;;;0.70;91.90;;;;;;5041775;28;20239;-76
2022/12/19 08:47:01;;;;;;;5.13;3.20;;;0.70;91.90;;;;;;5039058;28;20266;-74
2022/12/19 08:49:29;;;;;;;4.32;2.78;;;0.70;91.90;;;;;;5040858;28;20223;-73
2022/12/19 08:51:58;;;;;;;4.15;2.80;;;0.70;91.90;;;;;;5034292;28;20212;-75
2022/12/19 08:54:27;;;;;;;3.33;2.47;;;0.70;91.90;;;;;;5036802;28;20201;-73
2022/12/19 08:56:55;;;;;;;4.72;3.17;;;0.70;91.80;;;;;;5044197;28;20216;-74
2022/12/19 08:59:27;;;;;;;5.15;3.40;;;0.70;91.80;;;;;;5044763;28;20303;-73
2022/12/19 09:01:58;;;;;;;3.92;2.83;;;0.70;91.80;;;;;;5031885;28;20250;-73
2022/12/19 09:04:28;;;;;;;2.70;2.50;;;0.70;91.80;;;;;;5040035;28;20234;-74
2022/12/19 09:07:16;;;;;;;4.60;2.95;;;0.70;91.80;;;;;;5032605;28;20236;-74
2022/12/19 09:09:45;;;;;;;3.10;2.17;;;0.70;91.80;;;;;;5052134;28;20222;-74
2022/12/19 09:12:14;;;;;;;3.95;3.10;;;0.70;91.80;;;;;;5038703;28;20309;-74
2022/12/19 09:14:45;;;;;;;7.60;3.53;;;0.80;91.90;;;;;;5032587;28;20228;-76
2022/12/19 09:17:13;;;;;;;4.00;3.00;;;0.70;91.80;;;;;;5041413;28;20250;-73
2022/12/19 09:19:42;;;;;;;4.65;3.55;;;0.80;91.80;;;;;;5040998;28;20255;-75
2022/12/19 09:22:16;;;;;;;4.13;2.55;;;0.80;91.70;;;;;;5044205;28;20318;-73
2022/12/19 09:24:45;;;;;;;5.30;2.72;;;0.80;91.60;;;;;;5032871;28;20255;-73
2022/12/19 09:27:13;;;;;;;4.32;3.10;;;0.80;91.60;;;;;;5042572;28;20687;-74
2022/12/19 09:29:42;;;;;;;4.25;3.05;;;0.80;91.60;;;;;;5046867;28;20246;-74
2022/12/19 09:32:12;;;;;;;3.40;2.90;;;0.80;91.70;;;;;;5048856;28;20211;-74
2022/12/19 09:34:41;;;;;;;4.95;3.33;;;0.80;91.70;;;;;;5043078;28;20200;-74
2022/12/19 09:37:11;;;;;;;5.00;3.08;;;0.80;91.70;;;;;;5066896;28;20269;-74
2022/12/19 09:39:46;;;;;;;4.55;2.60;;;0.80;91.80;;;;;;5038203;28;20614;-74
2022/12/19 09:42:37;;;;;;;4.38;2.63;;;0.80;91.80;;;;;;5045078;28;20747;-74
2022/12/19 09:45:32;;;;;;;4.38;3.30;;;0.80;91.90;;;;;;5039173;28;20488;-75
2022/12/19 09:48:02;;;;;;;3.40;3.08;;;0.90;92.40;;;;;;5052825;28;20224;-73
2022/12/19 09:50:41;;;;;;;6.07;3.30;;;0.90;92.30;;;;;;5038675;28;20205;-74
2022/12/19 09:53:16;;;;;;;4.18;3.05;;;0.90;92.30;;;;;;5064599;28;20319;-76
2022/12/19 09:55:46;;;;;;;4.45;2.88;;;0.90;92.30;;;;;;5054798;28;20232;-74
2022/12/19 09:58:24;;;;;;;5.30;3.55;;;0.90;92.30;;;;;;5037620;28;20287;-74
2022/12/19 10:00:57;;;;;;;4.10;2.78;;;0.90;92.30;;;;;;5040120;28;20357;-74
2022/12/19 10:03:32;;;;;;;4.45;2.53;;;1.00;92.30;;;;;;5046876;28;20719;-73
2022/12/19 10:06:17;;;;;;;5.30;2.67;;;1.00;92.40;;;;;;5045421;28;20250;-74
2022/12/19 10:09:12;;;;;;;3.25;2.95;;;1.00;92.30;;;;;;5034798;28;20213;-74
2022/12/19 10:12:13;;;;;;;4.20;2.33;;;0.90;92.40;;;;;;5046585;28;20224;-74
2022/12/19 10:15:08;;;;;;;3.00;2.80;;;1.00;92.50;;;;;;5046138;28;20434;-73
2022/12/19 10:17:56;;;;;;;6.90;2.90;;;1.00;92.60;;;;;;5044176;28;21116;-74
2022/12/19 10:20:30;;;;;;;4.28;2.50;;;1.00;92.50;;;;;;5054644;28;20240;-73
2022/12/19 10:23:12;;;;;;;5.40;2.85;;;1.00;92.50;;;;;;5040418;28;20244;-74
2022/12/19 10:25:56;;;;;;;4.25;3.10;;;1.00;92.50;;;;;;5041458;28;20232;-75
2022/12/19 10:28:37;;;;;;;3.28;2.40;;;1.00;92.40;;;;;;5055700;28;20221;-75
2022/12/19 10:31:16;;;;;;;3.25;2.22;;;1.00;92.40;;;;;;5049052;28;20189;-75
2022/12/19 10:33:57;;;;;;;3.33;2.30;;;1.00;92.30;;;;;;5039056;28;20277;-74
2022/12/19 10:36:30;;;;;;;5.35;3.40;;;1.00;92.30;;;;;;5048662;28;20219;-73
2022/12/19 10:39:27;;;;;;;4.15;3.03;;;1.00;92.30;;;;;;5042462;28;20209;-75
2022/12/19 10:42:02;;;;;;;3.30;2.63;;;1.00;92.20;;;;;;5035860;28;20731;-75
2022/12/19 10:44:34;;;;;;;3.38;2.22;;;1.00;92.10;;;;;;5046512;28;20219;-75
2022/12/19 10:47:02;;;;;;;2.75;2.50;;;1.00;92.10;;;;;;5052817;28;20644;-74
2022/12/19 10:49:31;;;;;;;3.80;2.80;;;1.00;92.10;;;;;;5041858;28;20242;-73
2022/12/19 10:52:06;;;;;;;2.85;2.25;;;1.00;92.20;;;;;;5046367;28;20350;-73
2022/12/19 10:54:40;;;;;;;5.00;3.10;;;1.00;92.30;;;;;;5034074;28;20247;-73
2022/12/19 10:57:22;;;;;;;3.33;2.58;;;1.00;92.30;;;;;;5046659;28;20328;-75
2022/12/19 10:59:55;;;;;;;3.88;2.67;;;1.10;92.30;;;;;;5048962;28;20722;-73
2022/12/19 11:02:33;;;;;;;2.90;2.60;;;1.10;92.40;;;;;;5035828;28;20703;-73
2022/12/19 11:05:04;;;;;;;3.15;2.65;;;1.10;92.40;;;;;;5062862;28;20207;-76
2022/12/19 11:07:34;;;;;;;4.95;2.60;;;1.10;92.50;;;;;;5045622;28;20223;-74
2022/12/19 11:10:02;;;;;;;3.10;2.15;;;1.10;92.40;;;;;;5038049;28;20188;-74
2022/12/19 11:12:52;;;;;;;2.60;1.80;;;1.10;92.50;;;;;;5042420;28;20578;-73
2022/12/19 11:15:47;;;;;;;6.85;2.95;;;1.10;92.50;;;;;;5042619;28;20228;-74
2022/12/19 11:18:38;;;;;;;3.85;2.45;;;1.10;92.40;;;;;;5039307;28;20217;-73
2022/12/19 11:21:29;;;;;;;3.55;2.50;;;1.10;92.50;;;;;;5050193;28;20244;-71
2022/12/19 11:24:25;;;;;;;3.90;2.83;;;1.20;92.50;;;;;;5041050;28;20216;-70
2022/12/19 11:27:34;;;;;;;4.30;2.38;;;1.10;92.30;;;;;;5042837;28;20266;-71
2022/12/19 11:30:25;;;;;;;4.97;2.65;;;1.20;92.40;;;;;;5043701;28;20272;-69
2022/12/19 11:33:16;;;;;;;3.05;2.50;;;1.10;92.40;;;;;;5041185;28;20177;-70
2022/12/19 11:35:48;;;;;;;3.90;3.30;;;1.20;92.30;;;;;;5046427;28;20224;-70
2022/12/19 11:38:21;;;;;;;4.28;3.20;;;1.20;92.30;;;;;;5036312;28;20244;-70
2022/12/19 11:40:57;;;;;;;4.22;2.58;;;1.20;92.20;;;;;;5040904;28;20247;-71
2022/12/19 11:43:31;;;;;;;4.20;2.60;;;1.20;92.20;;;;;;5045896;28;20211;-70
2022/12/19 11:46:33;;;;;;;3.25;2.05;;;1.20;92.20;;;;;;5041392;28;20193;-69
2022/12/19 11:49:08;;;;;;;3.92;2.40;;;1.20;92.20;;;;;;5031794;28;20299;-70
2022/12/19 11:51:45;;;;;;;3.08;2.78;;;1.20;92.20;;;;;;5044450;28;20227;-70
2022/12/19 11:54:19;;;;;;;4.60;2.33;;;1.20;92.20;;;;;;5054412;28;20212;-70
2022/12/19 11:56:49;;;;;;;3.95;3.33;;;1.20;92.20;;;;;;5043983;28;20735;-69
2022/12/19 11:59:20;;;;;;;3.33;2.50;;;1.20;92.30;;;;;;5044989;28;20212;-70
2022/12/19 12:02:08;;;;;;;3.40;2.40;;;1.20;92.20;;;;;;5043009;28;20220;-69
2022/12/19 12:05:10;;;;;;;3.53;2.92;;;1.20;92.30;;;;;;5042925;28;20216;-69
2022/12/19 12:07:40;;;;;;;3.47;2.35;;;1.20;92.20;;;;;;5047867;28;20297;-70
2022/12/19 12:10:33;;;;;;;4.63;3.83;;;1.20;92.20;;;;;;5039331;28;20283;-69
2022/12/19 12:13:31;;;;;;;3.30;2.40;;;1.30;92.20;;;;;;5034205;28;20480;-70
2022/12/19 12:16:29;;;;;;;4.20;2.00;;;1.30;92.20;;;;;;5044388;28;20216;-70
2022/12/19 12:19:31;;;;;;;3.60;2.47;;;1.30;92.20;;;;;;5033273;28;20209;-70
2022/12/19 12:22:40;;;;;;;3.83;2.50;;;1.30;92.20;;;;;;5035598;28;20266;-73
2022/12/19 12:25:40;;;;;;;2.40;2.13;;;1.30;92.20;;;;;;5038867;28;20298;-71
2022/12/19 12:28:58;;;;;;;3.35;2.45;;;1.30;92.20;;;;;;5046525;28;20220;-74
2022/12/19 12:32:05;;;;;;;3.55;2.15;;;1.30;92.10;;;;;;5040916;28;20971;-74
2022/12/19 12:35:05;;;;;;;4.78;3.30;;;1.30;92.20;;;;;;5028254;28;20624;-75
2022/12/19 12:38:02;;;;;;;3.60;2.45;;;1.30;92.20;;;;;;5048685;28;20234;-76
2022/12/19 12:41:08;;;;;;;3.17;2.20;;;1.30;92.10;;;;;;5045914;28;20243;-75
2022/12/19 12:44:07;;;;;;;4.43;2.42;;;1.40;92.20;;;;;;5029764;28;20619;-74
2022/12/19 12:46:40;;;;;;;4.03;2.40;;;1.40;92.30;;;;;;5030669;28;20220;-75
2022/12/19 12:49:27;;;;;;;3.33;2.10;;;1.40;92.30;;;;;;5037215;28;20212;-75
2022/12/19 12:51:56;;;;;;;3.40;2.15;;;1.40;92.30;;;;;;5036638;28;20758;-75
2022/12/19 12:54:31;;;;;;;2.83;2.40;;;1.40;92.40;;;;;;5043617;28;20188;-74
2022/12/19 12:56:59;;;;;;;3.00;2.50;;;1.40;92.40;;;;;;5031863;28;20271;-74
2022/12/19 12:59:32;;;;;;;3.15;2.75;;;1.40;92.40;;;;;;5041765;28;20223;-76
2022/12/19 13:02:07;;;;;;;5.43;2.80;;;1.40;92.40;;;;;;5034873;28;20266;-74
2022/12/19 13:04:42;;;;;;;3.45;2.50;;;1.40;92.40;;;;;;5041996;28;20300;-74
2022/12/19 13:07:30;;;;;;;2.67;1.92;;;1.40;92.40;;;;;;5033441;28;20676;-73
2022/12/19 13:10:17;;;;;;;5.50;2.50;;;1.40;92.30;;;;;;5048206;28;20568;-74
2022/12/19 13:13:01;;;;;;;3.28;2.50;;;1.40;92.40;;;;;;5035331;28;20225;-73
2022/12/19 13:15:49;;;;;;;2.95;2.75;;;1.50;92.40;;;;;;5061767;28;20196;-73
2022/12/19 13:18:37;;;;;;;4.47;2.42;;;1.50;92.30;;;;;;5029083;28;20481;-74
2022/12/19 13:21:08;;;;;;;4.57;3.22;;;1.50;92.30;;;;;;5038760;28;20200;-74
2022/12/19 13:24:12;;;;;;;5.30;2.95;;;1.50;92.50;;;;;;5040743;28;20200;-74
2022/12/19 13:26:48;;;;;;;2.70;1.85;;;1.50;92.50;;;;;;5043503;28;20724;-73
2022/12/19 13:29:52;;;;;;;2.60;1.90;;;1.50;92.50;;;;;;5041905;28;20754;-74
2022/12/19 13:32:23;;;;;;;2.40;2.05;;;1.50;92.40;;;;;;5035997;28;20217;-75
2022/12/19 13:34:54;;;;;;;4.10;2.45;;;1.50;92.50;;;;;;5043848;28;20613;-75
2022/12/19 13:37:45;;;;;;;3.35;2.15;;;1.50;92.30;;;;;;5053872;28;20224;-75
2022/12/19 13:40:50;;;;;;;3.45;2.47;;;1.50;92.40;;;;;;5028250;28;20798;-74